createdAt,value
2024-03-11T00:00:47.672Z,10.23
2024-03-11T00:04:49.178Z,10.63
2024-03-11T00:08:50.759Z,13.43
2024-03-11T00:12:54.525Z,10.60
2024-03-11T00:17:00.841Z,11.32
2024-03-11T00:25:06.062Z,10.30
2024-03-11T00:29:07.591Z,12.98
2024-03-11T00:33:10.569Z,11.10
2024-03-11T00:37:13.813Z,11.35
2024-03-11T00:41:15.280Z,13.27
2024-03-11T00:45:17.603Z,11.18
2024-03-11T00:49:22.956Z,10.75
2024-03-11T00:53:26.428Z,12.20
2024-03-11T00:57:28.154Z,10.30
2024-03-11T01:01:29.625Z,11.90
2024-03-11T01:05:33.126Z,12.52
2024-03-11T01:09:34.970Z,12.27
2024-03-11T01:13:36.405Z,10.77
2024-03-11T01:17:38.587Z,10.27
2024-03-11T01:21:40.096Z,11.07
2024-03-11T01:25:41.573Z,10.98
2024-03-11T01:29:43.237Z,11.10
2024-03-11T01:33:45.186Z,11.35
2024-03-11T01:37:46.814Z,13.77
2024-03-11T01:41:48.352Z,10.57
2024-03-11T01:45:50.296Z,10.55
2024-03-11T01:49:54.564Z,10.10
2024-03-11T01:53:56.232Z,11.82
2024-03-11T01:58:01.336Z,12.93
2024-03-11T02:02:08.834Z,13.90
2024-03-11T02:06:12.798Z,11.75
2024-03-11T02:10:16.984Z,12.82
2024-03-11T02:14:18.585Z,12.30
2024-03-11T02:18:20.460Z,11.80
2024-03-11T02:22:22.122Z,11.77
2024-03-11T02:26:23.712Z,10.75
2024-03-11T02:30:26.105Z,12.07
2024-03-11T02:34:27.642Z,11.15
2024-03-11T02:38:29.177Z,10.77
2024-03-11T02:42:33.756Z,10.88
2024-03-11T02:46:35.926Z,11.68
2024-03-11T02:50:39.059Z,10.65
2024-03-11T02:54:42.017Z,11.48
2024-03-11T02:58:43.765Z,11.77
2024-03-11T03:02:46.831Z,9.43
2024-03-11T03:06:48.400Z,11.32
2024-03-11T03:10:49.922Z,11.32
2024-03-11T03:14:51.511Z,13.85
2024-03-11T03:18:55.187Z,13.68
2024-03-11T03:22:56.679Z,10.80
2024-03-11T03:26:58.129Z,10.43
2024-03-11T03:31:00.151Z,11.77
2024-03-11T03:35:01.634Z,10.30
2024-03-11T03:39:09.516Z,10.65
2024-03-11T03:43:11.127Z,10.63
2024-03-11T03:47:12.609Z,11.07
2024-03-11T03:51:14.128Z,10.65
2024-03-11T03:55:16.032Z,9.70
2024-03-11T03:59:17.839Z,10.27
2024-03-11T04:03:22.978Z,12.15
2024-03-11T04:07:24.413Z,12.45
2024-03-11T04:11:26.027Z,12.18
2024-03-11T04:15:30.950Z,11.75
2024-03-11T04:19:32.979Z,10.38
2024-03-11T04:23:34.878Z,11.00
2024-03-11T04:27:37.714Z,12.80
2024-03-11T04:31:42.786Z,13.00
2024-03-11T04:35:45.185Z,13.73
2024-03-11T04:39:47.166Z,8.82
2024-03-11T04:43:48.930Z,10.25
2024-03-11T04:47:50.895Z,12.25
2024-03-11T04:51:52.480Z,11.95
2024-03-11T04:55:54.051Z,13.10
2024-03-11T04:59:55.627Z,10.80
2024-03-11T05:03:57.147Z,12.95
2024-03-11T05:07:58.790Z,11.85
2024-03-11T05:12:00.375Z,11.75
2024-03-11T05:16:01.983Z,15.88
2024-03-11T05:20:07.335Z,13.25
2024-03-11T05:24:08.826Z,13.43
2024-03-11T05:28:10.440Z,12.73
2024-03-11T05:32:12.246Z,12.32
2024-03-11T05:36:14.963Z,11.30
2024-03-11T05:40:16.502Z,12.98
2024-03-11T05:44:20.387Z,15.38
2024-03-11T05:48:22.618Z,13.50
2024-03-11T05:52:27.313Z,12.07
2024-03-11T05:56:31.094Z,13.23
2024-03-11T06:00:34.778Z,12.48
2024-03-11T06:04:37.590Z,13.90
2024-03-11T06:08:39.165Z,13.07
2024-03-11T06:12:40.821Z,11.38
2024-03-11T06:16:46.424Z,14.18
2024-03-11T06:20:48.392Z,11.90
2024-03-11T06:24:50.683Z,11.95
2024-03-11T06:28:53.313Z,13.98
2024-03-11T06:32:54.900Z,13.02
2024-03-11T06:36:56.672Z,16.60
2024-03-11T06:40:58.307Z,14.35
2024-03-11T06:44:59.948Z,17.27
2024-03-11T06:49:03.075Z,11.80
2024-03-11T06:53:06.594Z,14.50
2024-03-11T06:57:08.183Z,13.73
2024-03-11T07:01:11.315Z,13.75
2024-03-11T07:05:14.277Z,13.10
2024-03-11T07:09:16.527Z,10.77
2024-03-11T07:13:18.336Z,13.25
2024-03-11T07:17:21.398Z,14.82
2024-03-11T07:21:29.148Z,11.77
2024-03-11T07:25:35.827Z,12.80
2024-03-11T07:29:38.005Z,12.18
2024-03-11T07:33:40.738Z,12.18
2024-03-11T07:37:43.358Z,13.05
2024-03-11T07:41:46.768Z,11.73
2024-03-11T07:45:48.758Z,12.55
2024-03-11T07:49:50.290Z,10.75
2024-03-11T07:53:52.000Z,10.60
2024-03-11T07:57:53.492Z,12.10
2024-03-11T08:01:54.958Z,12.35
2024-03-11T08:05:57.392Z,14.88
2024-03-11T08:10:01.816Z,11.13
2024-03-11T08:14:05.344Z,11.13
2024-03-11T08:18:07.192Z,11.93
2024-03-11T08:22:09.170Z,11.38
2024-03-11T08:26:10.697Z,12.35
2024-03-11T08:30:12.792Z,15.30
2024-03-11T08:34:14.338Z,10.50
2024-03-11T08:38:15.825Z,11.52
2024-03-11T08:42:17.417Z,11.65
2024-03-11T08:46:20.231Z,12.15
2024-03-11T08:50:23.306Z,12.05
2024-03-11T08:54:25.303Z,12.05
2024-03-11T08:58:26.792Z,11.00
2024-03-11T09:02:31.818Z,11.00
2024-03-11T09:06:33.312Z,10.98
2024-03-11T09:10:34.800Z,11.80
2024-03-11T09:14:36.242Z,11.48
2024-03-11T09:18:40.113Z,12.00
2024-03-11T09:22:43.021Z,10.98
2024-03-11T09:26:53.861Z,10.25
2024-03-11T09:30:55.483Z,11.07
2024-03-11T09:34:59.310Z,8.55
2024-03-11T09:39:00.749Z,7.45
2024-03-11T09:43:06.705Z,7.95
2024-03-11T09:47:08.570Z,9.18
2024-03-11T09:51:11.614Z,10.27
2024-03-11T09:55:15.830Z,10.07
2024-03-11T09:59:26.177Z,9.20
2024-03-11T10:03:28.879Z,9.15
2024-03-11T10:07:31.513Z,8.10
2024-03-11T10:11:33.997Z,8.30
2024-03-11T10:15:36.030Z,8.60
2024-03-11T10:19:48.886Z,10.05
2024-03-11T10:23:51.023Z,7.65
2024-03-11T10:27:52.612Z,7.22
2024-03-11T10:31:54.095Z,6.20
2024-03-11T10:36:08.059Z,7.30
2024-03-11T10:40:12.139Z,6.75
2024-03-11T10:44:18.573Z,6.20
2024-03-11T10:48:21.458Z,6.15
2024-03-11T10:52:26.476Z,4.05
2024-03-11T10:56:28.095Z,3.63
2024-03-11T11:00:35.539Z,2.50
2024-03-11T11:04:38.050Z,2.00
2024-03-11T11:08:43.533Z,2.15
2024-03-11T11:12:45.762Z,1.10
2024-03-11T11:16:50.398Z,1.90
2024-03-11T11:20:53.669Z,1.25
2024-03-11T11:24:55.430Z,1.23
2024-03-11T11:29:06.193Z,1.13
2024-03-11T11:33:11.369Z,1.60
2024-03-11T11:37:32.369Z,0.70
2024-03-11T11:41:38.166Z,1.25
2024-03-11T11:45:51.660Z,1.23
2024-03-11T11:49:53.313Z,0.30
2024-03-11T11:54:05.797Z,0.68
2024-03-11T11:58:12.198Z,0.70
2024-03-11T12:02:20.590Z,0.75
2024-03-11T12:06:23.233Z,0.65
2024-03-11T12:10:25.306Z,0.30
2024-03-11T12:14:26.826Z,1.38
2024-03-11T12:18:28.352Z,0.30
2024-03-11T12:22:31.141Z,0.17
2024-03-11T12:26:35.955Z,0.93
2024-03-11T12:30:49.761Z,0.10
2024-03-11T12:34:51.440Z,0.35
2024-03-11T12:38:53.721Z,0.10
2024-03-11T12:42:58.105Z,0.10
2024-03-11T12:47:02.501Z,0.13
2024-03-11T12:51:04.401Z,0.10
2024-03-11T12:55:07.562Z,0.10
2024-03-11T12:59:14.980Z,0.20
2024-03-11T13:03:19.131Z,0.10
2024-03-11T13:07:24.390Z,0.35
2024-03-11T13:11:25.991Z,0.50
2024-03-11T13:15:31.518Z,0.57
2024-03-11T13:19:33.083Z,1.17
2024-03-11T13:23:35.286Z,0.15
2024-03-11T13:27:36.788Z,0.10
2024-03-11T13:31:38.380Z,0.10
2024-03-11T13:35:41.507Z,0.00
2024-03-11T13:39:43.201Z,0.10
2024-03-11T13:43:44.886Z,0.10
2024-03-11T13:47:46.367Z,0.40
2024-03-11T13:51:48.036Z,0.30
2024-03-11T13:55:50.564Z,0.73
2024-03-11T13:59:52.355Z,0.32
2024-03-11T14:03:54.045Z,1.25
2024-03-11T14:07:56.188Z,1.70
2024-03-11T14:11:57.700Z,2.83
2024-03-11T14:15:59.328Z,3.70
2024-03-11T14:20:00.826Z,6.18
2024-03-11T14:24:05.562Z,4.90
2024-03-11T14:28:07.628Z,8.00
2024-03-11T14:32:11.533Z,5.55
2024-03-11T14:36:14.328Z,4.80
2024-03-11T14:40:46.916Z,6.50
2024-03-11T14:44:48.810Z,4.20
2024-03-11T14:48:50.796Z,4.07
2024-03-11T14:52:52.342Z,2.42
2024-03-11T14:56:54.444Z,0.80
2024-03-11T15:00:58.692Z,2.60
2024-03-11T15:05:00.344Z,2.63
2024-03-11T15:09:03.058Z,2.42
2024-03-11T15:13:05.401Z,3.13
2024-03-11T15:17:07.810Z,4.60
2024-03-11T15:21:10.778Z,4.15
2024-03-11T15:25:12.348Z,4.10
2024-03-11T15:29:14.230Z,4.55
2024-03-11T15:33:21.815Z,3.67
2024-03-11T15:37:24.735Z,6.40
2024-03-11T15:41:27.159Z,10.07
2024-03-11T15:45:35.183Z,6.47
2024-03-11T15:49:37.420Z,8.20
2024-03-11T15:53:41.436Z,4.50
2024-03-11T15:57:43.966Z,6.00
2024-03-11T16:01:48.662Z,4.85
2024-03-11T16:05:51.693Z,4.85
2024-03-11T16:10:13.228Z,4.00
2024-03-11T16:14:15.027Z,4.13
2024-03-11T16:18:17.507Z,5.32
2024-03-11T16:22:22.001Z,3.72
2024-03-11T16:26:24.047Z,4.60
2024-03-11T16:30:26.831Z,4.10
2024-03-11T16:34:28.618Z,4.05
2024-03-11T16:38:31.761Z,4.03
2024-03-11T16:42:34.079Z,3.80
2024-03-11T16:46:36.207Z,6.22
2024-03-11T16:50:38.428Z,2.25
2024-03-11T16:54:39.996Z,3.45
2024-03-11T16:58:42.204Z,2.90
2024-03-11T17:02:48.968Z,3.50
2024-03-11T17:06:52.349Z,3.15
2024-03-11T17:10:55.891Z,4.03
2024-03-11T17:15:01.446Z,3.03
2024-03-11T17:19:04.806Z,2.03
2024-03-11T17:23:08.268Z,2.00
2024-03-11T17:27:09.782Z,1.85
2024-03-11T17:31:13.926Z,3.13
2024-03-11T17:35:19.324Z,2.03
2024-03-11T17:39:21.324Z,2.10
2024-03-11T17:43:24.001Z,3.85
2024-03-11T17:47:26.390Z,6.63
2024-03-11T17:51:31.343Z,2.88
2024-03-11T17:55:33.102Z,2.08
2024-03-11T17:59:35.269Z,4.20
2024-03-11T18:03:41.089Z,2.88
2024-03-11T18:11:48.344Z,3.55
2024-03-11T18:15:50.037Z,6.93
2024-03-11T18:19:51.939Z,2.60
2024-03-11T18:23:53.726Z,3.72
2024-03-11T18:27:59.186Z,2.75
2024-03-11T18:32:01.133Z,4.97
2024-03-11T18:36:03.614Z,4.10
2024-03-11T18:40:15.254Z,5.15
2024-03-11T18:44:16.882Z,2.60
2024-03-11T18:48:19.825Z,1.55
2024-03-11T18:52:23.198Z,2.47
2024-03-11T18:56:25.379Z,3.58
2024-03-11T19:00:27.716Z,4.03
2024-03-11T19:04:30.270Z,4.07
2024-03-11T19:08:32.658Z,1.67
2024-03-11T19:12:34.252Z,1.55
2024-03-11T19:16:36.714Z,3.92
2024-03-11T19:20:40.835Z,4.43
2024-03-11T19:24:42.989Z,2.90
2024-03-11T19:28:45.175Z,2.03
2024-03-11T19:32:46.685Z,1.00
2024-03-11T19:36:58.278Z,0.80
2024-03-11T19:41:26.493Z,1.33
2024-03-11T19:46:07.866Z,2.55
2024-03-11T19:50:47.775Z,2.47
2024-03-11T19:55:26.801Z,1.40
2024-03-11T20:00:26.667Z,1.27
2024-03-11T20:05:19.565Z,2.28
2024-03-11T20:09:45.083Z,1.30
2024-03-11T20:14:17.843Z,1.58
2024-03-11T20:19:14.318Z,1.08
2024-03-11T20:23:28.242Z,3.50
2024-03-11T20:27:49.028Z,1.33
2024-03-11T20:32:18.876Z,3.83
2024-03-11T20:36:24.336Z,1.23
2024-03-11T20:40:28.897Z,1.33
2024-03-11T20:44:31.996Z,1.40
2024-03-11T20:48:35.131Z,1.25
2024-03-11T20:52:39.448Z,0.93
2024-03-11T20:56:41.196Z,0.60
2024-03-11T21:00:45.544Z,0.82
2024-03-11T21:04:47.338Z,1.00
2024-03-11T21:08:49.421Z,1.10
2024-03-11T21:12:51.073Z,1.88
2024-03-11T21:16:54.500Z,1.25
2024-03-11T21:21:10.119Z,2.88
2024-03-11T21:25:28.175Z,0.95
2024-03-11T21:29:30.223Z,0.80
2024-03-11T21:33:32.710Z,2.97
2024-03-11T21:37:34.312Z,0.93
2024-03-11T21:41:35.755Z,1.20
2024-03-11T21:45:38.470Z,1.40
2024-03-11T21:49:39.920Z,1.40
2024-03-11T21:53:41.400Z,1.10
2024-03-11T21:57:43.086Z,2.00
2024-03-11T22:01:44.893Z,1.08
2024-03-11T22:05:46.367Z,1.60
2024-03-11T22:09:54.064Z,1.55
2024-03-11T22:13:55.881Z,1.25
2024-03-11T22:17:57.361Z,1.85
2024-03-11T22:21:59.062Z,2.03
2024-03-11T22:26:00.586Z,1.58
2024-03-11T22:30:02.772Z,2.38
2024-03-11T22:34:04.384Z,2.55
2024-03-11T22:38:05.879Z,1.65
2024-03-11T22:42:11.599Z,4.07
2024-03-11T22:46:13.106Z,5.60
2024-03-11T22:50:14.729Z,4.07
2024-03-11T22:54:16.573Z,4.32
2024-03-11T22:58:18.061Z,4.70
2024-03-11T23:02:22.747Z,4.28
2024-03-11T23:06:26.287Z,2.95
2024-03-11T23:10:28.262Z,2.83
2024-03-11T23:14:34.950Z,3.53
2024-03-11T23:18:38.782Z,1.38
2024-03-11T23:22:40.275Z,3.42
2024-03-11T23:26:41.846Z,2.38
2024-03-11T23:30:43.520Z,1.40
2024-03-11T23:34:45.371Z,2.30
2024-03-11T23:38:46.930Z,2.45
2024-03-11T23:42:50.482Z,1.75
2024-03-11T23:46:52.364Z,1.75
2024-03-11T23:50:56.616Z,2.10
2024-03-11T23:54:58.265Z,2.17
2024-03-11T23:58:59.863Z,1.58
